sensor_id;sensor_type;location;lat;lon;timestamp;temperature;humidity
19847;DHT22;10084;50.518;8.588;2023-05-10T00:01:05;15.20;99.30
19847;DHT22;10084;50.518;8.588;2023-05-10T00:03:31;15.20;98.90
19847;DHT22;10084;50.518;8.588;2023-05-10T00:05:56;15.20;98.80
19847;DHT22;10084;50.518;8.588;2023-05-10T00:08:22;15.20;99.10
19847;DHT22;10084;50.518;8.588;2023-05-10T00:10:48;15.10;99.40
19847;DHT22;10084;50.518;8.588;2023-05-10T00:13:14;15.10;99.90
19847;DHT22;10084;50.518;8.588;2023-05-10T00:15:39;14.60;99.90
19847;DHT22;10084;50.518;8.588;2023-05-10T00:20:31;15.00;94.40
19847;DHT22;10084;50.518;8.588;2023-05-10T00:22:57;15.00;94.70
19847;DHT22;10084;50.518;8.588;2023-05-10T00:25:23;15.00;94.60
19847;DHT22;10084;50.518;8.588;2023-05-10T00:27:48;15.00;94.40
19847;DHT22;10084;50.518;8.588;2023-05-10T00:30:15;14.90;94.50
19847;DHT22;10084;50.518;8.588;2023-05-10T00:32:41;14.90;94.40
19847;DHT22;10084;50.518;8.588;2023-05-10T00:35:07;14.90;94.40
19847;DHT22;10084;50.518;8.588;2023-05-10T00:37:33;14.80;94.70
19847;DHT22;10084;50.518;8.588;2023-05-10T00:39:59;14.90;94.40
19847;DHT22;10084;50.518;8.588;2023-05-10T00:42:26;14.80;94.40
19847;DHT22;10084;50.518;8.588;2023-05-10T00:44:53;14.80;94.40
19847;DHT22;10084;50.518;8.588;2023-05-10T00:47:19;14.70;94.30
19847;DHT22;10084;50.518;8.588;2023-05-10T00:49:45;14.70;94.30
19847;DHT22;10084;50.518;8.588;2023-05-10T00:52:11;14.70;94.20
19847;DHT22;10084;50.518;8.588;2023-05-10T00:54:37;14.70;94.40
19847;DHT22;10084;50.518;8.588;2023-05-10T00:57:03;14.60;94.40
19847;DHT22;10084;50.518;8.588;2023-05-10T00:59:29;14.60;94.40
19847;DHT22;10084;50.518;8.588;2023-05-10T01:01:55;14.60;94.30
19847;DHT22;10084;50.518;8.588;2023-05-10T01:04:21;14.60;94.40
19847;DHT22;10084;50.518;8.588;2023-05-10T01:06:51;14.60;94.40
19847;DHT22;10084;50.518;8.588;2023-05-10T01:09:18;14.60;94.30
19847;DHT22;10084;50.518;8.588;2023-05-10T01:11:44;14.60;94.30
19847;DHT22;10084;50.518;8.588;2023-05-10T01:14:10;14.60;94.40
19847;DHT22;10084;50.518;8.588;2023-05-10T01:16:38;14.50;94.40
19847;DHT22;10084;50.518;8.588;2023-05-10T01:19:17;14.50;94.50
19847;DHT22;10084;50.518;8.588;2023-05-10T01:25:00;14.50;94.60
19847;DHT22;10084;50.518;8.588;2023-05-10T01:33:01;14.50;94.80
19847;DHT22;10084;50.518;8.588;2023-05-10T01:35:38;14.50;95.30
19847;DHT22;10084;50.518;8.588;2023-05-10T01:38:28;14.40;94.80
19847;DHT22;10084;50.518;8.588;2023-05-10T01:43:42;14.40;95.10
19847;DHT22;10084;50.518;8.588;2023-05-10T01:46:16;14.40;94.70
19847;DHT22;10084;50.518;8.588;2023-05-10T01:48:53;14.40;94.50
19847;DHT22;10084;50.518;8.588;2023-05-10T01:51:22;14.40;94.50
19847;DHT22;10084;50.518;8.588;2023-05-10T01:53:52;14.40;94.50
19847;DHT22;10084;50.518;8.588;2023-05-10T01:56:24;14.40;94.40
19847;DHT22;10084;50.518;8.588;2023-05-10T01:58:51;14.40;94.50
19847;DHT22;10084;50.518;8.588;2023-05-10T02:01:20;14.40;94.50
19847;DHT22;10084;50.518;8.588;2023-05-10T02:03:47;14.40;94.50
19847;DHT22;10084;50.518;8.588;2023-05-10T02:06:16;14.30;94.40
19847;DHT22;10084;50.518;8.588;2023-05-10T02:08:45;14.30;94.40
19847;DHT22;10084;50.518;8.588;2023-05-10T02:11:13;14.30;94.40
19847;DHT22;10084;50.518;8.588;2023-05-10T02:13:39;14.30;94.50
19847;DHT22;10084;50.518;8.588;2023-05-10T02:16:07;14.30;94.50
19847;DHT22;10084;50.518;8.588;2023-05-10T02:18:34;14.30;94.60
19847;DHT22;10084;50.518;8.588;2023-05-10T02:21:02;14.30;94.60
19847;DHT22;10084;50.518;8.588;2023-05-10T02:23:29;14.30;94.70
19847;DHT22;10084;50.518;8.588;2023-05-10T02:25:56;14.30;94.70
19847;DHT22;10084;50.518;8.588;2023-05-10T02:28:23;14.30;94.80
19847;DHT22;10084;50.518;8.588;2023-05-10T02:30:51;14.20;95.00
19847;DHT22;10084;50.518;8.588;2023-05-10T02:33:18;14.20;95.20
19847;DHT22;10084;50.518;8.588;2023-05-10T02:35:46;14.20;95.50
19847;DHT22;10084;50.518;8.588;2023-05-10T02:38:14;14.20;95.70
19847;DHT22;10084;50.518;8.588;2023-05-10T02:40:42;14.20;95.40
19847;DHT22;10084;50.518;8.588;2023-05-10T02:43:12;14.20;95.30
19847;DHT22;10084;50.518;8.588;2023-05-10T02:45:39;14.20;96.30
19847;DHT22;10084;50.518;8.588;2023-05-10T02:48:05;14.10;94.70
19847;DHT22;10084;50.518;8.588;2023-05-10T02:50:33;14.10;94.80
19847;DHT22;10084;50.518;8.588;2023-05-10T02:53:09;14.10;94.80
19847;DHT22;10084;50.518;8.588;2023-05-10T02:55:38;14.10;94.90
19847;DHT22;10084;50.518;8.588;2023-05-10T02:58:05;14.10;94.90
19847;DHT22;10084;50.518;8.588;2023-05-10T03:00:31;14.10;94.90
19847;DHT22;10084;50.518;8.588;2023-05-10T03:02:57;14.10;94.90
19847;DHT22;10084;50.518;8.588;2023-05-10T03:05:23;14.10;95.00
19847;DHT22;10084;50.518;8.588;2023-05-10T03:07:50;14.00;95.00
19847;DHT22;10084;50.518;8.588;2023-05-10T03:10:17;14.10;95.00
19847;DHT22;10084;50.518;8.588;2023-05-10T03:21:13;14.00;95.00
19847;DHT22;10084;50.518;8.588;2023-05-10T03:23:43;14.00;95.00
19847;DHT22;10084;50.518;8.588;2023-05-10T03:26:23;14.00;95.00
19847;DHT22;10084;50.518;8.588;2023-05-10T03:28:55;14.00;95.20
19847;DHT22;10084;50.518;8.588;2023-05-10T03:31:22;14.00;95.10
19847;DHT22;10084;50.518;8.588;2023-05-10T03:33:49;13.90;95.10
19847;DHT22;10084;50.518;8.588;2023-05-10T03:36:17;13.90;95.20
19847;DHT22;10084;50.518;8.588;2023-05-10T03:38:43;13.90;95.20
19847;DHT22;10084;50.518;8.588;2023-05-10T03:41:09;13.90;95.30
19847;DHT22;10084;50.518;8.588;2023-05-10T03:43:34;13.90;95.30
19847;DHT22;10084;50.518;8.588;2023-05-10T03:46:04;13.90;95.30
19847;DHT22;10084;50.518;8.588;2023-05-10T03:50:57;13.90;95.50
19847;DHT22;10084;50.518;8.588;2023-05-10T03:53:24;13.90;95.60
19847;DHT22;10084;50.518;8.588;2023-05-10T03:55:50;14.00;95.50
19847;DHT22;10084;50.518;8.588;2023-05-10T03:58:16;14.00;95.40
19847;DHT22;10084;50.518;8.588;2023-05-10T04:00:42;14.00;95.40
19847;DHT22;10084;50.518;8.588;2023-05-10T04:03:12;14.00;95.50
19847;DHT22;10084;50.518;8.588;2023-05-10T04:05:38;14.00;95.70
19847;DHT22;10084;50.518;8.588;2023-05-10T04:08:04;14.00;95.40
19847;DHT22;10084;50.518;8.588;2023-05-10T04:10:31;14.00;95.60
19847;DHT22;10084;50.518;8.588;2023-05-10T04:12:56;14.10;95.70
19847;DHT22;10084;50.518;8.588;2023-05-10T04:15:22;14.00;95.60
19847;DHT22;10084;50.518;8.588;2023-05-10T04:17:48;14.10;95.60
19847;DHT22;10084;50.518;8.588;2023-05-10T04:20:14;14.10;95.60
19847;DHT22;10084;50.518;8.588;2023-05-10T04:22:40;14.10;95.50
19847;DHT22;10084;50.518;8.588;2023-05-10T04:25:06;14.10;95.40
19847;DHT22;10084;50.518;8.588;2023-05-10T04:27:32;14.10;95.50
19847;DHT22;10084;50.518;8.588;2023-05-10T04:29:58;14.10;95.60
19847;DHT22;10084;50.518;8.588;2023-05-10T04:32:24;14.10;95.70
19847;DHT22;10084;50.518;8.588;2023-05-10T04:34:49;14.20;95.70
19847;DHT22;10084;50.518;8.588;2023-05-10T04:37:16;14.20;95.80
19847;DHT22;10084;50.518;8.588;2023-05-10T04:39:42;14.20;95.90
19847;DHT22;10084;50.518;8.588;2023-05-10T04:42:08;14.30;95.90
19847;DHT22;10084;50.518;8.588;2023-05-10T04:44:34;14.30;95.90
19847;DHT22;10084;50.518;8.588;2023-05-10T04:47:00;14.40;95.90
19847;DHT22;10084;50.518;8.588;2023-05-10T04:49:28;14.40;96.00
19847;DHT22;10084;50.518;8.588;2023-05-10T04:51:53;14.50;96.00
19847;DHT22;10084;50.518;8.588;2023-05-10T04:54:19;14.50;96.10
19847;DHT22;10084;50.518;8.588;2023-05-10T04:56:45;14.60;96.10
19847;DHT22;10084;50.518;8.588;2023-05-10T04:59:11;14.60;96.10
19847;DHT22;10084;50.518;8.588;2023-05-10T05:01:36;14.70;95.80
19847;DHT22;10084;50.518;8.588;2023-05-10T05:04:02;14.70;96.00
19847;DHT22;10084;50.518;8.588;2023-05-10T05:06:28;14.80;95.90
19847;DHT22;10084;50.518;8.588;2023-05-10T05:08:54;14.80;96.10
19847;DHT22;10084;50.518;8.588;2023-05-10T05:11:19;14.90;96.10
19847;DHT22;10084;50.518;8.588;2023-05-10T05:13:46;15.00;96.00
19847;DHT22;10084;50.518;8.588;2023-05-10T05:16:12;15.10;96.00
19847;DHT22;10084;50.518;8.588;2023-05-10T05:18:38;15.20;95.80
19847;DHT22;10084;50.518;8.588;2023-05-10T05:21:17;15.20;95.70
19847;DHT22;10084;50.518;8.588;2023-05-10T05:23:43;15.30;95.70
19847;DHT22;10084;50.518;8.588;2023-05-10T05:26:09;15.40;95.70
19847;DHT22;10084;50.518;8.588;2023-05-10T05:28:35;15.60;95.70
19847;DHT22;10084;50.518;8.588;2023-05-10T05:31:07;15.70;95.70
19847;DHT22;10084;50.518;8.588;2023-05-10T05:33:33;15.90;95.50
19847;DHT22;10084;50.518;8.588;2023-05-10T05:36:04;16.00;95.60
19847;DHT22;10084;50.518;8.588;2023-05-10T05:38:30;16.10;95.30
19847;DHT22;10084;50.518;8.588;2023-05-10T05:40:55;16.20;94.60
19847;DHT22;10084;50.518;8.588;2023-05-10T05:43:21;16.20;94.00
19847;DHT22;10084;50.518;8.588;2023-05-10T05:45:47;16.20;93.80
19847;DHT22;10084;50.518;8.588;2023-05-10T05:48:13;16.20;93.70
19847;DHT22;10084;50.518;8.588;2023-05-10T05:50:38;16.20;93.40
19847;DHT22;10084;50.518;8.588;2023-05-10T05:53:04;16.20;93.40
19847;DHT22;10084;50.518;8.588;2023-05-10T05:57:57;16.10;92.80
19847;DHT22;10084;50.518;8.588;2023-05-10T06:00:23;16.10;92.60
19847;DHT22;10084;50.518;8.588;2023-05-10T06:02:49;16.10;92.20
19847;DHT22;10084;50.518;8.588;2023-05-10T06:05:15;16.10;91.90
19847;DHT22;10084;50.518;8.588;2023-05-10T06:07:41;16.00;91.80
19847;DHT22;10084;50.518;8.588;2023-05-10T06:10:09;16.00;91.70
19847;DHT22;10084;50.518;8.588;2023-05-10T06:12:35;16.00;91.80
19847;DHT22;10084;50.518;8.588;2023-05-10T06:15:02;16.00;91.80
19847;DHT22;10084;50.518;8.588;2023-05-10T06:17:28;16.00;91.70
19847;DHT22;10084;50.518;8.588;2023-05-10T06:19:54;16.00;91.80
19847;DHT22;10084;50.518;8.588;2023-05-10T06:22:20;16.00;91.80
19847;DHT22;10084;50.518;8.588;2023-05-10T06:24:47;16.00;91.90
19847;DHT22;10084;50.518;8.588;2023-05-10T06:27:12;16.10;92.10
19847;DHT22;10084;50.518;8.588;2023-05-10T06:29:38;16.20;92.10
19847;DHT22;10084;50.518;8.588;2023-05-10T06:32:04;16.30;92.10
19847;DHT22;10084;50.518;8.588;2023-05-10T06:34:30;16.40;92.10
19847;DHT22;10084;50.518;8.588;2023-05-10T06:36:57;16.60;93.10
19847;DHT22;10084;50.518;8.588;2023-05-10T06:39:22;17.00;94.40
19847;DHT22;10084;50.518;8.588;2023-05-10T06:44:14;18.10;99.90
19847;DHT22;10084;50.518;8.588;2023-05-10T06:49:07;19.00;93.10
19847;DHT22;10084;50.518;8.588;2023-05-10T06:51:33;19.30;91.80
19847;DHT22;10084;50.518;8.588;2023-05-10T06:53:59;19.40;90.50
19847;DHT22;10084;50.518;8.588;2023-05-10T06:56:24;19.40;88.70
19847;DHT22;10084;50.518;8.588;2023-05-10T06:58:50;19.50;87.70
19847;DHT22;10084;50.518;8.588;2023-05-10T07:01:16;19.40;86.40
19847;DHT22;10084;50.518;8.588;2023-05-10T07:03:41;19.40;85.40
19847;DHT22;10084;50.518;8.588;2023-05-10T07:06:07;19.30;84.20
19847;DHT22;10084;50.518;8.588;2023-05-10T07:08:33;19.20;83.70
19847;DHT22;10084;50.518;8.588;2023-05-10T07:11:04;19.10;83.00
19847;DHT22;10084;50.518;8.588;2023-05-10T07:13:31;19.00;82.60
19847;DHT22;10084;50.518;8.588;2023-05-10T07:15:57;18.90;82.40
19847;DHT22;10084;50.518;8.588;2023-05-10T07:18:24;18.80;82.70
19847;DHT22;10084;50.518;8.588;2023-05-10T07:20:49;18.80;83.10
19847;DHT22;10084;50.518;8.588;2023-05-10T07:23:15;18.90;83.50
19847;DHT22;10084;50.518;8.588;2023-05-10T07:25:47;19.00;83.50
19847;DHT22;10084;50.518;8.588;2023-05-10T07:28:15;19.10;82.70
19847;DHT22;10084;50.518;8.588;2023-05-10T07:30:40;19.20;82.00
19847;DHT22;10084;50.518;8.588;2023-05-10T07:33:07;19.20;81.30
19847;DHT22;10084;50.518;8.588;2023-05-10T07:35:34;19.10;80.90
19847;DHT22;10084;50.518;8.588;2023-05-10T07:38:00;19.10;80.80
19847;DHT22;10084;50.518;8.588;2023-05-10T07:40:25;19.10;80.60
19847;DHT22;10084;50.518;8.588;2023-05-10T07:42:51;19.00;80.20
19847;DHT22;10084;50.518;8.588;2023-05-10T07:45:18;18.90;79.90
19847;DHT22;10084;50.518;8.588;2023-05-10T07:47:43;18.80;79.80
19847;DHT22;10084;50.518;8.588;2023-05-10T07:50:09;18.70;80.10
19847;DHT22;10084;50.518;8.588;2023-05-10T07:52:35;18.50;79.20
19847;DHT22;10084;50.518;8.588;2023-05-10T07:55:00;18.40;79.30
19847;DHT22;10084;50.518;8.588;2023-05-10T07:57:26;18.30;79.40
19847;DHT22;10084;50.518;8.588;2023-05-10T07:59:52;18.20;79.40
19847;DHT22;10084;50.518;8.588;2023-05-10T08:02:17;18.10;79.40
19847;DHT22;10084;50.518;8.588;2023-05-10T08:04:43;18.00;79.50
19847;DHT22;10084;50.518;8.588;2023-05-10T08:07:09;18.00;79.70
19847;DHT22;10084;50.518;8.588;2023-05-10T08:09:34;17.90;79.70
19847;DHT22;10084;50.518;8.588;2023-05-10T08:12:01;17.90;79.90
19847;DHT22;10084;50.518;8.588;2023-05-10T08:14:28;17.90;80.10
19847;DHT22;10084;50.518;8.588;2023-05-10T08:16:54;17.90;80.00
19847;DHT22;10084;50.518;8.588;2023-05-10T08:19:20;17.90;79.90
19847;DHT22;10084;50.518;8.588;2023-05-10T08:21:47;17.90;80.00
19847;DHT22;10084;50.518;8.588;2023-05-10T08:24:13;17.90;80.00
19847;DHT22;10084;50.518;8.588;2023-05-10T08:26:39;18.00;80.00
19847;DHT22;10084;50.518;8.588;2023-05-10T08:29:04;18.00;80.00
19847;DHT22;10084;50.518;8.588;2023-05-10T08:31:30;18.10;79.90
19847;DHT22;10084;50.518;8.588;2023-05-10T08:33:56;18.10;79.90
19847;DHT22;10084;50.518;8.588;2023-05-10T08:36:22;18.20;80.00
19847;DHT22;10084;50.518;8.588;2023-05-10T08:38:53;18.30;80.00
19847;DHT22;10084;50.518;8.588;2023-05-10T08:41:23;18.50;79.70
19847;DHT22;10084;50.518;8.588;2023-05-10T08:43:55;18.60;79.50
19847;DHT22;10084;50.518;8.588;2023-05-10T08:46:22;18.70;79.20
19847;DHT22;10084;50.518;8.588;2023-05-10T08:48:49;18.70;78.80
19847;DHT22;10084;50.518;8.588;2023-05-10T08:51:20;18.80;78.70
19847;DHT22;10084;50.518;8.588;2023-05-10T08:53:47;18.80;78.50
19847;DHT22;10084;50.518;8.588;2023-05-10T08:56:13;18.70;78.10
19847;DHT22;10084;50.518;8.588;2023-05-10T08:58:42;18.60;77.70
19847;DHT22;10084;50.518;8.588;2023-05-10T09:01:08;18.50;77.70
19847;DHT22;10084;50.518;8.588;2023-05-10T09:03:35;18.30;77.90
19847;DHT22;10084;50.518;8.588;2023-05-10T09:06:03;18.20;78.10
19847;DHT22;10084;50.518;8.588;2023-05-10T09:08:30;18.10;78.50
19847;DHT22;10084;50.518;8.588;2023-05-10T09:10:56;18.00;78.90
19847;DHT22;10084;50.518;8.588;2023-05-10T09:13:24;18.00;79.00
19847;DHT22;10084;50.518;8.588;2023-05-10T09:15:50;18.00;79.80
19847;DHT22;10084;50.518;8.588;2023-05-10T09:18:16;17.90;79.20
19847;DHT22;10084;50.518;8.588;2023-05-10T09:20:42;17.80;79.20
19847;DHT22;10084;50.518;8.588;2023-05-10T09:23:07;17.60;79.40
19847;DHT22;10084;50.518;8.588;2023-05-10T09:25:34;17.60;79.80
19847;DHT22;10084;50.518;8.588;2023-05-10T09:28:00;17.50;80.10
19847;DHT22;10084;50.518;8.588;2023-05-10T09:30:30;17.50;80.40
19847;DHT22;10084;50.518;8.588;2023-05-10T09:32:57;17.50;80.70
19847;DHT22;10084;50.518;8.588;2023-05-10T09:35:27;17.50;80.80
19847;DHT22;10084;50.518;8.588;2023-05-10T09:37:55;17.50;80.90
19847;DHT22;10084;50.518;8.588;2023-05-10T09:40:23;17.40;80.80
19847;DHT22;10084;50.518;8.588;2023-05-10T09:45:26;17.40;81.10
19847;DHT22;10084;50.518;8.588;2023-05-10T09:47:52;17.30;81.10
19847;DHT22;10084;50.518;8.588;2023-05-10T09:50:19;17.30;81.10
19847;DHT22;10084;50.518;8.588;2023-05-10T09:52:53;17.30;81.30
19847;DHT22;10084;50.518;8.588;2023-05-10T09:55:20;17.30;81.40
19847;DHT22;10084;50.518;8.588;2023-05-10T09:57:48;17.20;81.60
19847;DHT22;10084;50.518;8.588;2023-05-10T10:00:20;17.20;81.60
19847;DHT22;10084;50.518;8.588;2023-05-10T10:02:48;17.20;81.60
19847;DHT22;10084;50.518;8.588;2023-05-10T10:05:14;17.20;81.40
19847;DHT22;10084;50.518;8.588;2023-05-10T10:07:40;17.10;81.50
19847;DHT22;10084;50.518;8.588;2023-05-10T10:10:07;17.10;81.80
19847;DHT22;10084;50.518;8.588;2023-05-10T10:12:37;17.10;82.20
19847;DHT22;10084;50.518;8.588;2023-05-10T10:15:03;17.10;82.60
19847;DHT22;10084;50.518;8.588;2023-05-10T10:17:30;17.30;83.30
19847;DHT22;10084;50.518;8.588;2023-05-10T10:19:57;17.50;83.50
19847;DHT22;10084;50.518;8.588;2023-05-10T10:22:23;17.70;83.20
19847;DHT22;10084;50.518;8.588;2023-05-10T10:24:50;18.00;83.00
19847;DHT22;10084;50.518;8.588;2023-05-10T10:27:26;18.20;82.80
19847;DHT22;10084;50.518;8.588;2023-05-10T10:30:37;18.40;82.90
19847;DHT22;10084;50.518;8.588;2023-05-10T10:35:44;19.50;84.40
19847;DHT22;10084;50.518;8.588;2023-05-10T10:38:12;20.30;84.10
19847;DHT22;10084;50.518;8.588;2023-05-10T10:40:38;21.00;83.40
19847;DHT22;10084;50.518;8.588;2023-05-10T10:46:16;22.10;86.60
19847;DHT22;10084;50.518;8.588;2023-05-10T10:48:51;22.00;84.10
19847;DHT22;10084;50.518;8.588;2023-05-10T10:51:37;21.60;82.40
19847;DHT22;10084;50.518;8.588;2023-05-10T10:54:11;21.20;81.70
19847;DHT22;10084;50.518;8.588;2023-05-10T10:56:37;20.70;82.20
19847;DHT22;10084;50.518;8.588;2023-05-10T10:59:03;20.40;82.60
19847;DHT22;10084;50.518;8.588;2023-05-10T11:01:35;20.10;82.90
19847;DHT22;10084;50.518;8.588;2023-05-10T11:06:34;19.80;83.60
19847;DHT22;10084;50.518;8.588;2023-05-10T11:09:10;19.70;83.70
19847;DHT22;10084;50.518;8.588;2023-05-10T11:11:36;19.60;83.80
19847;DHT22;10084;50.518;8.588;2023-05-10T11:14:06;19.40;83.60
19847;DHT22;10084;50.518;8.588;2023-05-10T11:16:44;19.10;83.70
19847;DHT22;10084;50.518;8.588;2023-05-10T11:19:13;18.90;84.10
19847;DHT22;10084;50.518;8.588;2023-05-10T11:24:16;18.50;84.40
19847;DHT22;10084;50.518;8.588;2023-05-10T11:26:42;18.30;83.80
19847;DHT22;10084;50.518;8.588;2023-05-10T11:29:08;18.20;83.60
19847;DHT22;10084;50.518;8.588;2023-05-10T11:31:34;18.10;83.40
19847;DHT22;10084;50.518;8.588;2023-05-10T11:34:01;18.00;83.50
19847;DHT22;10084;50.518;8.588;2023-05-10T11:36:29;17.90;83.20
19847;DHT22;10084;50.518;8.588;2023-05-10T11:38:56;17.90;83.30
19847;DHT22;10084;50.518;8.588;2023-05-10T11:41:23;17.80;83.10
19847;DHT22;10084;50.518;8.588;2023-05-10T11:43:51;17.70;83.20
19847;DHT22;10084;50.518;8.588;2023-05-10T11:46:18;17.70;83.00
19847;DHT22;10084;50.518;8.588;2023-05-10T11:48:48;17.60;82.70
19847;DHT22;10084;50.518;8.588;2023-05-10T11:51:14;17.40;82.00
19847;DHT22;10084;50.518;8.588;2023-05-10T11:53:40;17.30;81.00
19847;DHT22;10084;50.518;8.588;2023-05-10T11:56:09;17.20;80.60
19847;DHT22;10084;50.518;8.588;2023-05-10T11:58:37;17.10;80.40
19847;DHT22;10084;50.518;8.588;2023-05-10T12:01:05;17.10;80.40
19847;DHT22;10084;50.518;8.588;2023-05-10T12:03:32;17.10;80.30
19847;DHT22;10084;50.518;8.588;2023-05-10T12:05:58;17.10;80.30
19847;DHT22;10084;50.518;8.588;2023-05-10T12:08:26;17.20;80.30
19847;DHT22;10084;50.518;8.588;2023-05-10T12:11:03;17.30;80.50
19847;DHT22;10084;50.518;8.588;2023-05-10T12:13:29;17.40;80.10
19847;DHT22;10084;50.518;8.588;2023-05-10T12:15:57;17.60;80.30
19847;DHT22;10084;50.518;8.588;2023-05-10T12:18:24;17.70;81.20
19847;DHT22;10084;50.518;8.588;2023-05-10T12:20:52;17.90;81.20
19847;DHT22;10084;50.518;8.588;2023-05-10T12:23:20;18.20;81.10
19847;DHT22;10084;50.518;8.588;2023-05-10T12:25:46;18.40;80.90
19847;DHT22;10084;50.518;8.588;2023-05-10T12:28:12;18.60;81.00
19847;DHT22;10084;50.518;8.588;2023-05-10T12:30:38;18.80;80.90
19847;DHT22;10084;50.518;8.588;2023-05-10T12:33:12;19.10;80.70
19847;DHT22;10084;50.518;8.588;2023-05-10T12:35:52;19.30;80.60
19847;DHT22;10084;50.518;8.588;2023-05-10T12:38:31;19.50;80.70
19847;DHT22;10084;50.518;8.588;2023-05-10T12:41:02;19.90;80.40
19847;DHT22;10084;50.518;8.588;2023-05-10T12:43:28;20.20;79.60
19847;DHT22;10084;50.518;8.588;2023-05-10T12:45:54;20.50;78.80
19847;DHT22;10084;50.518;8.588;2023-05-10T12:48:20;20.80;78.10
19847;DHT22;10084;50.518;8.588;2023-05-10T12:50:46;21.00;77.30
19847;DHT22;10084;50.518;8.588;2023-05-10T12:53:16;21.20;76.90
19847;DHT22;10084;50.518;8.588;2023-05-10T12:55:42;21.30;76.50
19847;DHT22;10084;50.518;8.588;2023-05-10T12:58:08;21.40;76.10
19847;DHT22;10084;50.518;8.588;2023-05-10T13:00:34;21.50;75.70
19847;DHT22;10084;50.518;8.588;2023-05-10T13:02:59;21.50;75.20
19847;DHT22;10084;50.518;8.588;2023-05-10T13:05:25;21.50;75.00
19847;DHT22;10084;50.518;8.588;2023-05-10T13:07:51;21.60;74.90
19847;DHT22;10084;50.518;8.588;2023-05-10T13:10:17;21.60;74.50
19847;DHT22;10084;50.518;8.588;2023-05-10T13:12:43;21.50;74.40
19847;DHT22;10084;50.518;8.588;2023-05-10T13:15:09;21.50;74.00
19847;DHT22;10084;50.518;8.588;2023-05-10T13:17:34;21.50;73.90
19847;DHT22;10084;50.518;8.588;2023-05-10T13:20:00;21.40;73.50
19847;DHT22;10084;50.518;8.588;2023-05-10T13:22:26;21.40;73.20
19847;DHT22;10084;50.518;8.588;2023-05-10T13:24:51;21.50;72.80
19847;DHT22;10084;50.518;8.588;2023-05-10T13:27:17;21.40;72.40
19847;DHT22;10084;50.518;8.588;2023-05-10T13:29:43;21.40;72.40
19847;DHT22;10084;50.518;8.588;2023-05-10T13:32:08;21.50;72.40
19847;DHT22;10084;50.518;8.588;2023-05-10T13:34:34;21.60;72.20
19847;DHT22;10084;50.518;8.588;2023-05-10T13:37:01;21.70;71.90
19847;DHT22;10084;50.518;8.588;2023-05-10T13:39:27;21.70;71.60
19847;DHT22;10084;50.518;8.588;2023-05-10T13:41:52;21.70;71.50
19847;DHT22;10084;50.518;8.588;2023-05-10T13:44:20;21.80;71.10
19847;DHT22;10084;50.518;8.588;2023-05-10T13:46:46;21.80;70.70
19847;DHT22;10084;50.518;8.588;2023-05-10T13:49:11;21.80;70.50
19847;DHT22;10084;50.518;8.588;2023-05-10T13:51:37;21.80;70.10
19847;DHT22;10084;50.518;8.588;2023-05-10T13:54:03;21.80;69.70
19847;DHT22;10084;50.518;8.588;2023-05-10T13:56:28;21.80;69.30
19847;DHT22;10084;50.518;8.588;2023-05-10T13:58:55;21.80;69.10
19847;DHT22;10084;50.518;8.588;2023-05-10T14:01:21;21.80;69.00
19847;DHT22;10084;50.518;8.588;2023-05-10T14:03:47;21.80;68.80
19847;DHT22;10084;50.518;8.588;2023-05-10T14:06:13;21.70;68.50
19847;DHT22;10084;50.518;8.588;2023-05-10T14:08:39;21.70;68.40
19847;DHT22;10084;50.518;8.588;2023-05-10T14:11:05;21.70;69.00
19847;DHT22;10084;50.518;8.588;2023-05-10T14:13:31;21.60;68.10
19847;DHT22;10084;50.518;8.588;2023-05-10T14:15:57;21.50;68.10
19847;DHT22;10084;50.518;8.588;2023-05-10T14:18:22;21.50;68.20
19847;DHT22;10084;50.518;8.588;2023-05-10T14:20:48;21.50;68.40
19847;DHT22;10084;50.518;8.588;2023-05-10T14:23:14;21.60;68.30
19847;DHT22;10084;50.518;8.588;2023-05-10T14:25:40;21.70;68.10
19847;DHT22;10084;50.518;8.588;2023-05-10T14:28:06;21.70;67.80
19847;DHT22;10084;50.518;8.588;2023-05-10T14:30:32;21.80;67.50
19847;DHT22;10084;50.518;8.588;2023-05-10T14:33:02;21.80;67.20
19847;DHT22;10084;50.518;8.588;2023-05-10T14:35:28;21.80;67.00
19847;DHT22;10084;50.518;8.588;2023-05-10T14:37:56;21.80;66.90
19847;DHT22;10084;50.518;8.588;2023-05-10T14:40:22;21.80;66.90
19847;DHT22;10084;50.518;8.588;2023-05-10T14:42:48;21.80;66.80
19847;DHT22;10084;50.518;8.588;2023-05-10T14:45:13;21.70;66.60
19847;DHT22;10084;50.518;8.588;2023-05-10T14:47:39;21.60;66.30
19847;DHT22;10084;50.518;8.588;2023-05-10T14:50:06;21.40;66.40
19847;DHT22;10084;50.518;8.588;2023-05-10T14:52:31;21.20;66.40
19847;DHT22;10084;50.518;8.588;2023-05-10T14:54:57;21.00;66.50
19847;DHT22;10084;50.518;8.588;2023-05-10T14:57:24;20.80;66.50
19847;DHT22;10084;50.518;8.588;2023-05-10T14:59:50;20.50;66.50
19847;DHT22;10084;50.518;8.588;2023-05-10T15:02:15;20.20;66.60
19847;DHT22;10084;50.518;8.588;2023-05-10T15:04:41;19.80;66.70
19847;DHT22;10084;50.518;8.588;2023-05-10T15:07:07;19.50;67.10
19847;DHT22;10084;50.518;8.588;2023-05-10T15:09:33;19.20;67.50
19847;DHT22;10084;50.518;8.588;2023-05-10T15:11:58;19.00;68.00
19847;DHT22;10084;50.518;8.588;2023-05-10T15:14:24;18.80;68.50
19847;DHT22;10084;50.518;8.588;2023-05-10T15:16:50;18.70;68.80
19847;DHT22;10084;50.518;8.588;2023-05-10T15:19:15;18.60;69.20
19847;DHT22;10084;50.518;8.588;2023-05-10T15:21:41;18.50;69.50
19847;DHT22;10084;50.518;8.588;2023-05-10T15:24:09;18.50;69.80
19847;DHT22;10084;50.518;8.588;2023-05-10T15:26:35;18.60;70.10
19847;DHT22;10084;50.518;8.588;2023-05-10T15:29:00;18.60;70.20
19847;DHT22;10084;50.518;8.588;2023-05-10T15:31:26;18.70;70.30
19847;DHT22;10084;50.518;8.588;2023-05-10T15:33:57;18.70;70.50
19847;DHT22;10084;50.518;8.588;2023-05-10T15:36:24;18.80;70.70
19847;DHT22;10084;50.518;8.588;2023-05-10T15:38:50;18.80;70.70
19847;DHT22;10084;50.518;8.588;2023-05-10T15:41:16;18.90;70.60
19847;DHT22;10084;50.518;8.588;2023-05-10T15:43:42;18.80;70.60
19847;DHT22;10084;50.518;8.588;2023-05-10T15:46:08;18.70;70.60
19847;DHT22;10084;50.518;8.588;2023-05-10T15:48:34;18.70;70.90
19847;DHT22;10084;50.518;8.588;2023-05-10T15:50:59;18.70;71.20
19847;DHT22;10084;50.518;8.588;2023-05-10T15:53:25;18.70;71.20
19847;DHT22;10084;50.518;8.588;2023-05-10T15:55:51;18.70;71.20
19847;DHT22;10084;50.518;8.588;2023-05-10T15:58:17;18.70;71.80
19847;DHT22;10084;50.518;8.588;2023-05-10T16:00:43;18.70;71.10
19847;DHT22;10084;50.518;8.588;2023-05-10T16:03:09;18.80;71.10
19847;DHT22;10084;50.518;8.588;2023-05-10T16:05:35;18.80;71.10
19847;DHT22;10084;50.518;8.588;2023-05-10T16:08:00;18.70;70.90
19847;DHT22;10084;50.518;8.588;2023-05-10T16:10:27;18.80;70.90
19847;DHT22;10084;50.518;8.588;2023-05-10T16:12:55;18.80;70.90
19847;DHT22;10084;50.518;8.588;2023-05-10T16:15:21;18.80;70.80